首页
METAR-TAF:

METAR-TAF

机场 :

查尔斯顿, 南卡罗来纳州, 美国

纬度: 32-53-56N, 经度: 080-02-26W, 海拔: 14米

当前天气观测

该预报发布于22分钟前的02:56 UTC
风速4节,风向西北
温度 22°C
湿度 94%
气压 1018 hPa
能見度: 16.1公里
少量云层高于12000英尺
多云层高于20000英尺

METAR: KCHS 170256Z 32004KT 10SM FEW120 BKN200 22/21 A3007 RMK AO2 SLP183 T02220211 51016

时间: 23:18 (03:18 UTC)

预报

该预报发布于3小时和58分钟前的23:20 UTC
预报有效从17日的 00点(UTC)到 17日的 24点(UTC)
风速3节,风向西北
能見度: 10公里
散云层高于3000英尺
阴天层高于9000英尺
从 17日的 0400点(UTC)
风速3节,风向多变
能見度: 10公里
散云层高于4000英尺
多云层高于12000英尺
附近有阵雨
从 17日的 1400点(UTC)
风速4节,风向
能見度: 10公里
多云层高于10000英尺
从 17日的 2000点(UTC)
风速6节,风向
能見度: 10公里
散云层高于5000英尺
散云层高于8000英尺

TAF: KCHS 162320Z 1700/1724 31003KT P6SM SCT030 OVC090 FM170400 VRB03KT P6SM VCSH SCT040 BKN120 FM171400 35004KT P6SM BKN100 FM172000 18006KT P6SM SCT050 SCT080

超过4000个机场的气象观测和天气预报(METAR&TAF报告)。

可查询的气象台以黄色和红色小点在地图上表示。

将鼠标移到小点上方,可查看气象台名称。

然后点击查看天气观测和预报。

如需切换地图:点击带黑十字的绿色按钮放大地图;点击带横线的绿色按钮缩小地图;或者点击绿色箭头查看邻近地区的地图。


METAR-TAF: